Terminal Aerodrome Forecast
Issued by NWS

Home | Current Version | Previous Version | Text Only | Print | Product List | Glossary On
Versions: 1 2 3 4 5 6 7 8 9 10 11 12 13 14 15 16 17 18 19 20 21 22 23 24 25
000
FTUS46 KSEW 072320
TAFHQM
TAF
KHQM 072320Z 0800/0824 25012KT P6SM FEW250
     FM080600 25004KT P6SM OVC015
     FM081000 00000KT 3SM BR OVC008
     FM081800 23006KT 6SM BR OVC012
     FM082000 24010KT P6SM SCT250=

USA.gov is the U.S. government's official web portal to all federal, state and local government web resources and services.